Time;durP1;ratioP1;P1;durP2;ratioP2;P2;SDS_P1;SDS_P2;PMS_P1;PMS_P2;Temp;Humidity;BMP_temperature;BMP_pressure;BME280_temperature;BME280_humidity;BME280_pressure;Samples;Min_cycle;Max_cycle;Signal;HPM_P1;HPM_P2
2022/03/24 00:01:30;;;;;;;43.38;22.95;;;256.60;1228.80;;;;;;5014410;28;20109;-90
2022/03/24 00:03:55;;;;;;;40.22;22.88;;;256.60;1254.40;;;;;;4999309;28;20054;-91
2022/03/24 00:06:21;;;;;;;39.95;22.65;;;256.60;1228.80;;;;;;4999891;28;20045;-91
2022/03/24 00:08:47;;;;;;;37.47;23.83;;;256.60;1228.80;;;;;;5000122;28;20072;-95
2022/03/24 00:11:12;;;;;;;44.17;25.13;;;256.60;1228.80;;;;;;4999717;28;20391;-92
2022/03/24 00:13:38;;;;;;;46.47;26.80;;;256.50;1228.80;;;;;;4999436;28;20764;-92
2022/03/24 00:16:04;;;;;;;46.22;27.17;;;256.40;1254.40;;;;;;4999112;28;20500;-91
2022/03/24 00:18:32;;;;;;;55.30;28.20;;;256.40;1254.40;;;;;;5013014;28;20040;-91
2022/03/24 00:20:58;;;;;;;58.45;29.35;;;256.30;1254.40;;;;;;5018351;28;20022;-92
2022/03/24 00:23:24;;;;;;;56.50;29.52;;;256.30;1254.40;;;;;;5019034;28;20029;-93
2022/03/24 00:25:50;;;;;;;61.20;30.40;;;256.20;1254.40;;;;;;5035609;28;20125;-92
2022/03/24 00:28:16;;;;;;;57.95;30.73;;;256.20;1254.40;;;;;;5034558;28;20085;-90
2022/03/24 00:30:41;;;;;;;51.90;30.67;;;256.20;1254.40;;;;;;5030720;28;20091;-88
2022/03/24 00:33:07;;;;;;;45.53;29.55;;;256.20;1254.40;;;;;;5028582;28;20100;-91
2022/03/24 00:35:33;;;;;;;47.55;30.33;;;256.10;1254.40;;;;;;5015483;28;20022;-87
2022/03/24 00:37:59;;;;;;;59.53;31.10;;;256.00;1280.00;;;;;;5014306;28;20049;-88
2022/03/24 00:40:25;;;;;;;46.65;27.48;;;231.30;1280.00;;;;;;4998366;28;20033;-90
2022/03/24 00:42:50;;;;;;;56.45;28.80;;;231.30;1280.00;;;;;;5015753;28;20029;-89
2022/03/24 00:45:18;;;;;;;56.08;27.88;;;256.00;1254.40;;;;;;5026678;28;20041;-88
2022/03/24 00:47:45;;;;;;;45.65;29.25;;;231.30;1280.00;;;;;;4998175;28;20045;-88
2022/03/24 00:50:12;;;;;;;49.70;26.65;;;231.30;1280.00;;;;;;5027731;28;20083;-89
2022/03/24 00:52:42;;;;;;;48.33;30.10;;;231.20;1280.00;;;;;;5007419;28;20202;-89
2022/03/24 00:55:12;;;;;;;48.70;28.02;;;231.10;1305.60;;;;;;5009100;28;20037;-89
2022/03/24 00:57:43;;;;;;;46.72;26.95;;;231.10;1305.60;;;;;;4998678;28;20092;-90
2022/03/24 01:00:17;;;;;;;52.13;28.83;;;230.90;1305.60;;;;;;5007581;28;20033;-89
2022/03/24 01:02:44;;;;;;;47.03;28.65;;;230.90;1305.60;;;;;;5020593;28;20022;-89
2022/03/24 01:05:13;;;;;;;59.65;29.45;;;230.90;1305.60;;;;;;5013999;28;20026;-88
2022/03/24 01:07:39;;;;;;;59.40;29.83;;;230.90;1305.60;;;;;;5014167;28;20030;-87
2022/03/24 01:10:06;;;;;;;55.13;30.73;;;231.00;1305.60;;;;;;5013970;28;20406;-87
2022/03/24 01:12:32;;;;;;;49.25;26.88;;;230.90;1305.60;;;;;;5013998;28;20100;-88
2022/03/24 01:14:58;;;;;;;46.33;28.35;;;231.00;1305.60;;;;;;5014451;28;20483;-89
2022/03/24 01:17:26;;;;;;;43.88;27.85;;;231.00;1305.60;;;;;;5014439;28;20121;-88
2022/03/24 01:19:53;;;;;;;51.13;27.35;;;231.00;1305.60;;;;;;5014782;28;20029;-89
2022/03/24 01:22:19;;;;;;;56.80;28.60;;;230.90;1305.60;;;;;;5014389;28;20410;-88
2022/03/24 01:24:45;;;;;;;41.38;26.90;;;230.90;1331.20;;;;;;5014886;28;20132;-90
2022/03/24 01:27:12;;;;;;;45.05;26.02;;;231.10;1305.60;;;;;;5011356;28;20054;-89
2022/03/24 01:29:38;;;;;;;42.08;25.63;;;231.00;1305.60;;;;;;5011636;28;20034;-90
2022/03/24 01:32:04;;;;;;;39.45;24.83;;;231.00;1305.60;;;;;;5019798;28;20034;-90
2022/03/24 01:34:30;;;;;;;39.47;25.20;;;231.00;1305.60;;;;;;5013699;28;20038;-90
2022/03/24 01:36:56;;;;;;;43.67;24.55;;;230.90;1305.60;;;;;;5013968;28;20032;-88
2022/03/24 01:39:22;;;;;;;43.90;26.67;;;230.90;1305.60;;;;;;5013655;28;20037;-88
2022/03/24 01:41:50;;;;;;;33.53;22.33;;;230.90;1305.60;;;;;;5014072;28;20119;-89
2022/03/24 01:44:17;;;;;;;44.15;24.17;;;230.90;1305.60;;;;;;5014070;28;20022;-89
2022/03/24 01:47:06;;;;;;;38.40;25.08;;;230.90;1305.60;;;;;;5012729;28;20084;-89
2022/03/24 01:49:34;;;;;;;42.33;24.27;;;231.00;1280.00;;;;;;5012260;28;20044;-89
2022/03/24 01:52:00;;;;;;;34.38;22.45;;;231.00;1280.00;;;;;;5013600;28;20131;-85
2022/03/24 01:54:31;;;;;;;38.72;24.70;;;231.00;1280.00;;;;;;5013075;28;20056;-88
2022/03/24 01:56:57;;;;;;;37.30;21.55;;;231.00;1280.00;;;;;;5012606;28;20045;-88
2022/03/24 01:59:24;;;;;;;38.15;22.08;;;230.90;1280.00;;;;;;5012813;28;20394;-88
2022/03/24 02:01:50;;;;;;;41.65;24.05;;;230.90;1280.00;;;;;;5012837;28;20033;-87
2022/03/24 02:04:18;;;;;;;32.33;22.48;;;231.10;1280.00;;;;;;5013186;28;20061;-87
2022/03/24 02:06:43;;;;;;;37.08;23.13;;;231.00;1280.00;;;;;;5012330;28;20151;-88
2022/03/24 02:09:11;;;;;;;38.35;22.42;;;231.00;1280.00;;;;;;5012934;28;20491;-87
2022/03/24 02:11:37;;;;;;;38.88;23.35;;;230.90;1280.00;;;;;;5012331;28;20394;-87
2022/03/24 02:14:04;;;;;;;38.28;21.08;;;230.90;1305.60;;;;;;5012070;28;20030;-87
2022/03/24 02:16:35;;;;;;;47.90;23.33;;;230.80;1305.60;;;;;;5013360;28;20014;-87
2022/03/24 02:19:20;;;;;;;37.25;24.15;;;230.80;1305.60;;;;;;5012271;28;20038;-87
2022/03/24 02:21:47;;;;;;;35.65;21.90;;;230.70;1305.60;;;;;;5013064;28;20018;-86
2022/03/24 02:24:15;;;;;;;49.25;25.08;;;230.70;1305.60;;;;;;5012572;28;20030;-88
2022/03/24 02:26:42;;;;;;;33.50;23.35;;;230.80;1305.60;;;;;;5012394;28;20145;-87
2022/03/24 02:29:13;;;;;;;37.65;23.02;;;230.70;1305.60;;;;;;5012952;28;20033;-86
2022/03/24 02:31:45;;;;;;;40.20;22.80;;;230.70;1305.60;;;;;;5012718;28;20037;-87
2022/03/24 02:36:59;;;;;;;36.17;22.13;;;230.60;1305.60;;;;;;5015092;28;20541;-87
2022/03/24 02:39:26;;;;;;;38.55;21.98;;;230.50;1331.20;;;;;;5012452;28;20065;-87
2022/03/24 02:41:54;;;;;;;41.65;21.83;;;230.40;1331.20;;;;;;5013054;28;20049;-86
2022/03/24 02:44:22;;;;;;;41.10;23.10;;;230.40;1331.20;;;;;;5014310;28;20061;-86
2022/03/24 02:46:50;;;;;;;44.20;22.77;;;205.70;1331.20;;;;;;5013540;28;20420;-85
2022/03/24 02:49:22;;;;;;;40.30;21.60;;;205.60;1331.20;;;;;;5015863;28;20121;-85
2022/03/24 02:54:35;;;;;;;46.85;25.85;;;205.60;1331.20;;;;;;5019950;28;20134;-87
2022/03/24 02:57:02;;;;;;;48.75;25.13;;;205.30;1331.20;;;;;;5013492;28;20172;-88
2022/03/24 02:59:28;;;;;;;41.42;22.15;;;205.50;1356.80;;;;;;5016331;28;20033;-86
2022/03/24 03:01:56;;;;;;;39.22;22.65;;;205.50;1331.20;;;;;;5013884;28;20045;-83
2022/03/24 03:04:22;;;;;;;36.30;21.58;;;205.60;1331.20;;;;;;5030873;28;20030;-84
2022/03/24 03:06:48;;;;;;;36.13;21.50;;;205.50;1331.20;;;;;;5013342;28;20124;-85
2022/03/24 03:09:16;;;;;;;43.17;23.10;;;205.50;1356.80;;;;;;5031655;28;20037;-85
2022/03/24 03:11:45;;;;;;;38.85;21.75;;;205.40;1356.80;;;;;;5015023;28;20482;-85
2022/03/24 05:10:34;;;;;;;34.22;19.48;;;205.20;1484.80;;;;;;1548134;23;20343;-84
2022/03/24 06:00:54;;;;;;;49.53;25.58;;;230.70;1408.00;;;;;;4997719;28;20391;-88
2022/03/24 06:03:21;;;;;;;42.88;24.00;;;230.80;1408.00;;;;;;4978725;28;20434;-89
2022/03/24 06:05:48;;;;;;;44.05;25.27;;;230.90;1408.00;;;;;;4978422;28;20073;-88
2022/03/24 06:08:14;;;;;;;42.22;23.67;;;231.00;1382.40;;;;;;4977514;28;20030;-89
2022/03/24 06:10:40;;;;;;;47.03;24.13;;;231.10;1382.40;;;;;;4991201;28;20096;-89
2022/03/24 06:13:06;;;;;;;49.85;29.88;;;231.20;1382.40;;;;;;4992320;28;20041;-87
2022/03/24 06:15:32;;;;;;;51.15;31.55;;;231.30;1356.80;;;;;;5007472;28;20070;-89
2022/03/24 06:17:58;;;;;;;48.70;29.35;;;256.00;1382.40;;;;;;4993726;28;20513;-88
2022/03/24 06:20:24;;;;;;;39.50;24.92;;;256.10;1356.80;;;;;;5002512;28;20045;-89
2022/03/24 06:22:52;;;;;;;42.28;24.08;;;256.20;1356.80;;;;;;4996433;28;20026;-90
2022/03/24 06:25:19;;;;;;;34.15;20.83;;;256.30;1356.80;;;;;;5012868;28;20514;-90
2022/03/24 06:27:46;;;;;;;30.17;19.48;;;256.30;1356.80;;;;;;4995890;28;20034;-90
2022/03/24 06:30:14;;;;;;;31.38;20.70;;;256.60;1356.80;;;;;;5012210;28;20506;-89
2022/03/24 06:32:40;;;;;;;41.08;24.50;;;256.80;1356.80;;;;;;4995329;28;20080;-91
2022/03/24 06:35:08;;;;;;;29.15;19.25;;;281.60;1356.80;;;;;;5005253;28;20026;-90
2022/03/24 06:37:40;;;;;;;36.15;20.25;;;281.70;1356.80;;;;;;4994964;28;20060;-88
2022/03/24 06:40:08;;;;;;;41.67;22.38;;;282.00;1356.80;;;;;;5002644;28;20043;-90
2022/03/24 06:42:34;;;;;;;37.13;24.48;;;282.20;1356.80;;;;;;4992513;28;20034;-88
2022/03/24 06:45:00;;;;;;;38.92;23.33;;;282.40;1331.20;;;;;;5005523;28;20032;-88
2022/03/24 06:47:26;;;;;;;32.28;19.77;;;307.30;1331.20;;;;;;5002962;28;20052;-90
2022/03/24 06:49:52;;;;;;;32.85;22.42;;;307.50;1305.60;;;;;;5008787;28;20479;-89
2022/03/24 06:52:18;;;;;;;40.85;21.83;;;307.70;1305.60;;;;;;4981371;28;20057;-90
2022/03/24 06:54:43;;;;;;;40.05;22.45;;;308.00;1305.60;;;;;;5009641;28;20048;-87
2022/03/24 06:57:14;;;;;;;34.47;19.88;;;332.80;1331.20;;;;;;5009944;28;20076;-90
2022/03/24 06:59:40;;;;;;;36.88;21.50;;;333.00;1305.60;;;;;;4986868;28;20133;-89
2022/03/24 07:02:06;;;;;;;37.58;23.80;;;333.10;1305.60;;;;;;4981935;28;20038;-89
2022/03/24 07:04:32;;;;;;;39.85;20.23;;;333.50;1305.60;;;;;;4987341;28;20038;-89
2022/03/24 07:06:58;;;;;;;33.67;22.00;;;333.70;1280.00;;;;;;4995181;28;20046;-90
2022/03/24 07:09:24;;;;;;;41.42;23.13;;;358.60;1254.40;;;;;;5012112;28;20038;-90
2022/03/24 07:11:50;;;;;;;48.92;35.15;;;358.90;1254.40;;;;;;5013038;28;20569;-88
2022/03/24 07:14:15;;;;;;;39.00;28.17;;;359.00;1254.40;;;;;;5012148;28;20037;-88
2022/03/24 07:16:41;;;;;;;35.15;20.95;;;359.20;1254.40;;;;;;5008010;28;20046;-88
2022/03/24 07:19:08;;;;;;;37.50;19.83;;;359.30;1228.80;;;;;;4995533;28;20046;-88
2022/03/24 07:21:34;;;;;;;31.80;18.83;;;384.00;1228.80;;;;;;5011780;28;20113;-89
2022/03/24 07:24:00;;;;;;;30.20;18.90;;;384.10;1228.80;;;;;;5006673;28;20379;-88
2022/03/24 07:26:25;;;;;;;32.15;20.35;;;384.30;1203.20;;;;;;5011165;28;20026;-88
2022/03/24 07:28:51;;;;;;;30.58;18.17;;;384.50;1203.20;;;;;;4990274;28;20053;-88
2022/03/24 07:31:19;;;;;;;29.40;20.08;;;384.80;1203.20;;;;;;5004559;28;20045;-87
2022/03/24 07:33:45;;;;;;;32.25;18.00;;;409.70;1228.80;;;;;;4994071;28;20502;-88
2022/03/24 07:36:12;;;;;;;38.03;20.50;;;409.90;1177.60;;;;;;4995254;28;20509;-88
2022/03/24 07:38:39;;;;;;;26.92;17.75;;;410.20;1177.60;;;;;;4988600;28;20038;-86
2022/03/24 07:41:06;;;;;;;32.25;19.00;;;410.30;1177.60;;;;;;5006868;28;20530;-87
2022/03/24 07:43:32;;;;;;;29.50;18.55;;;410.30;1152.00;;;;;;5000761;28;20156;-87
2022/03/24 07:45:58;;;;;;;24.13;17.00;;;410.50;1152.00;;;;;;4984388;28;20042;-85
2022/03/24 07:48:27;;;;;;;27.08;16.77;;;435.40;1126.40;;;;;;4990289;28;20026;-85
2022/03/24 07:50:55;;;;;;;27.90;15.85;;;435.40;1126.40;;;;;;4987564;28;20038;-84
2022/03/24 07:53:47;;;;;;;27.17;15.68;;;435.50;1100.80;;;;;;5000652;28;20030;-86
2022/03/24 07:56:17;;;;;;;22.55;15.05;;;435.50;1100.80;;;;;;4989077;28;20042;-86
2022/03/24 07:58:43;;;;;;;21.80;15.70;;;435.70;1100.80;;;;;;4979176;28;20022;-85
2022/03/24 08:01:10;;;;;;;25.73;15.18;;;435.90;1075.20;;;;;;4990331;28;20045;-86
2022/03/24 08:03:36;;;;;;;24.63;16.00;;;460.80;1100.80;;;;;;4989390;28;20030;-86
2022/03/24 08:06:02;;;;;;;21.80;14.05;;;461.00;1100.80;;;;;;5012991;28;20026;-85
2022/03/24 08:08:29;;;;;;;23.10;15.07;;;461.20;1075.20;;;;;;5006649;28;20038;-86
2022/03/24 08:10:55;;;;;;;22.70;14.48;;;461.40;1075.20;;;;;;5011729;28;20049;-85
2022/03/24 08:13:21;;;;;;;20.90;13.23;;;461.60;1049.60;;;;;;5007975;28;20069;-85
2022/03/24 08:15:48;;;;;;;24.67;14.80;;;486.40;1024.00;;;;;;5011517;28;20062;-85
2022/03/24 08:18:16;;;;;;;21.77;14.63;;;486.60;1024.00;;;;;;4996585;28;20052;-85
2022/03/24 08:20:43;;;;;;;31.58;15.68;;;487.00;1024.00;;;;;;4986846;28;20391;-85
2022/03/24 08:23:10;;;;;;;23.73;15.23;;;512.00;998.40;;;;;;4991400;28;20120;-84
2022/03/24 08:25:38;;;;;;;19.77;12.95;;;512.40;972.80;;;;;;5009864;28;20026;-85
2022/03/24 08:28:05;;;;;;;23.27;14.25;;;512.40;972.80;;;;;;4990596;28;20438;-84
2022/03/24 08:30:32;;;;;;;26.30;14.63;;;512.50;972.80;;;;;;4994232;28;20038;-86
2022/03/24 08:32:58;;;;;;;24.90;13.30;;;512.70;947.20;;;;;;4990809;28;20398;-86
2022/03/24 08:35:24;;;;;;;21.85;12.70;;;537.90;947.20;;;;;;4995659;28;20034;-83
2022/03/24 08:37:50;;;;;;;21.45;13.57;;;537.80;947.20;;;;;;4998098;28;20113;-85
2022/03/24 08:40:16;;;;;;;19.15;12.25;;;537.70;947.20;;;;;;4991664;28;20037;-85
2022/03/24 08:42:43;;;;;;;23.88;13.50;;;537.60;947.20;;;;;;4996417;28;20076;-84
2022/03/24 08:45:10;;;;;;;21.45;12.80;;;538.10;947.20;;;;;;4992303;28;20030;-84
2022/03/24 08:47:36;;;;;;;20.83;12.00;;;538.50;896.00;;;;;;4997268;28;20030;-84
2022/03/24 08:50:04;;;;;;;16.23;12.27;;;563.50;947.20;;;;;;5001249;28;20053;-86
2022/03/24 08:52:30;;;;;;;21.98;11.35;;;564.00;921.60;;;;;;5003639;28;20022;-86
2022/03/24 08:54:56;;;;;;;20.85;11.70;;;563.80;896.00;;;;;;5007168;28;20406;-86
2022/03/24 08:57:28;;;;;;;22.83;12.52;;;563.80;896.00;;;;;;5012940;28;20033;-86
2022/03/24 09:00:00;;;;;;;26.90;11.93;;;588.80;870.40;;;;;;5014083;28;20018;-87
2022/03/24 09:02:27;;;;;;;18.30;12.15;;;564.10;870.40;;;;;;4999072;28;20030;-87
2022/03/24 09:04:53;;;;;;;21.23;11.68;;;588.80;870.40;;;;;;5007030;28;20050;-88
2022/03/24 09:07:19;;;;;;;19.10;9.70;;;589.10;870.40;;;;;;4991264;28;20088;-86
2022/03/24 09:09:44;;;;;;;17.25;11.30;;;589.10;844.80;;;;;;5012201;28;20513;-87
2022/03/24 09:12:11;;;;;;;28.52;17.13;;;589.30;844.80;;;;;;5012422;28;20152;-86
2022/03/24 09:14:41;;;;;;;18.83;10.70;;;589.40;844.80;;;;;;4992771;28;20038;-86
2022/03/24 09:17:08;;;;;;;15.20;9.05;;;589.10;819.20;;;;;;4992001;28;20032;-86
2022/03/24 09:19:35;;;;;;;18.27;8.70;;;589.60;793.60;;;;;;5011907;28;20034;-86
2022/03/24 09:22:03;;;;;;;14.70;6.90;;;589.40;793.60;;;;;;4999663;28;20025;-86
2022/03/24 09:24:29;;;;;;;12.60;7.47;;;614.50;742.40;;;;;;4997275;28;20032;-85
2022/03/24 09:26:55;;;;;;;14.00;7.88;;;614.90;742.40;;;;;;5013596;28;20026;-86
2022/03/24 09:29:22;;;;;;;15.30;7.45;;;614.80;716.80;;;;;;5015132;28;20030;-86
2022/03/24 09:31:49;;;;;;;12.63;7.70;;;614.50;742.40;;;;;;4998424;28;20113;-85
2022/03/24 09:34:15;;;;;;;12.18;7.80;;;615.10;742.40;;;;;;5015463;28;20030;-86
2022/03/24 09:36:41;;;;;;;10.63;7.57;;;614.70;742.40;;;;;;5014708;28;20088;-86
2022/03/24 09:39:08;;;;;;;10.70;8.00;;;614.90;742.40;;;;;;5007824;28;20367;-84
2022/03/24 09:41:35;;;;;;;15.15;7.70;;;615.10;742.40;;;;;;5010298;28;20033;-86
2022/03/24 09:44:05;;;;;;;12.18;7.28;;;615.00;716.80;;;;;;5006046;28;20497;-86
2022/03/24 09:46:31;;;;;;;15.10;8.77;;;640.00;742.40;;;;;;5001348;28;20037;-86
2022/03/24 09:48:58;;;;;;;16.05;9.93;;;640.40;716.80;;;;;;5003680;28;20037;-86
2022/03/24 09:51:26;;;;;;;15.02;8.27;;;640.70;691.20;;;;;;5012849;28;20510;-86
2022/03/24 09:53:52;;;;;;;11.27;7.65;;;640.60;691.20;;;;;;4990130;28;20117;-87
2022/03/24 09:56:18;;;;;;;16.38;9.20;;;640.70;691.20;;;;;;4999002;28;20437;-76
2022/03/24 09:58:47;;;;;;;16.80;8.73;;;640.70;691.20;;;;;;5005033;28;20470;-76
2022/03/24 10:01:13;;;;;;;18.20;10.13;;;665.80;716.80;;;;;;5003335;28;20121;-84
2022/03/24 10:03:39;;;;;;;12.30;8.38;;;665.70;716.80;;;;;;4995037;28;20034;-82
2022/03/24 10:06:07;;;;;;;21.95;9.20;;;640.80;716.80;;;;;;4992821;28;20058;-86
2022/03/24 10:08:35;;;;;;;16.20;9.23;;;665.60;742.40;;;;;;5010387;28;20113;-86
2022/03/24 10:11:06;;;;;;;15.82;9.18;;;640.80;716.80;;;;;;4995440;28;20057;-86
2022/03/24 10:13:41;;;;;;;16.40;8.68;;;665.80;716.80;;;;;;4995569;28;20096;-86
2022/03/24 10:16:08;;;;;;;21.87;8.23;;;640.80;716.80;;;;;;4996695;28;20473;-85
2022/03/24 10:18:34;;;;;;;13.48;8.05;;;640.90;716.80;;;;;;5014432;28;20032;-86
2022/03/24 10:21:12;;;;;;;16.13;8.30;;;640.20;742.40;;;;;;4994776;28;20397;-86
2022/03/24 10:23:44;;;;;;;15.75;9.93;;;665.70;742.40;;;;;;4996483;28;20037;-86
2022/03/24 10:26:10;;;;;;;18.45;8.25;;;665.80;742.40;;;;;;5007090;28;20038;-86
2022/03/24 10:28:35;;;;;;;16.27;9.25;;;666.00;716.80;;;;;;5013057;28;20029;-86
2022/03/24 10:31:03;;;;;;;13.82;9.68;;;666.00;716.80;;;;;;4994683;28;20030;-86
2022/03/24 10:33:45;;;;;;;17.30;7.80;;;665.90;716.80;;;;;;4994583;28;20080;-86
2022/03/24 10:36:14;;;;;;;18.98;9.10;;;691.40;691.20;;;;;;4991319;28;20029;-86
2022/03/24 10:38:46;;;;;;;16.10;9.60;;;717.00;691.20;;;;;;4999379;28;20155;-84
2022/03/24 10:41:17;;;;;;;16.77;8.57;;;692.10;665.60;;;;;;4994258;28;20041;-86
2022/03/24 10:43:44;;;;;;;12.57;8.25;;;716.80;691.20;;;;;;4976625;28;20026;-86
2022/03/24 10:46:19;;;;;;;14.32;9.20;;;717.40;665.60;;;;;;4976495;28;20434;-86
2022/03/24 10:48:49;;;;;;;14.75;10.07;;;717.40;665.60;;;;;;4993671;28;20023;-84
2022/03/24 10:51:29;;;;;;;20.35;10.00;;;691.80;665.60;;;;;;5013566;28;20026;-87
2022/03/24 10:54:14;;;;;;;13.73;9.43;;;717.10;691.20;;;;;;4995546;28;20458;-85
2022/03/24 10:57:04;;;;;;;13.15;9.02;;;717.00;716.80;;;;;;4995866;28;20057;-86
2022/03/24 10:59:44;;;;;;;12.45;8.30;;;716.80;691.20;;;;;;5013440;28;20033;-87
2022/03/24 11:02:11;;;;;;;12.50;8.20;;;692.00;665.60;;;;;;4995280;28;20049;-87
2022/03/24 11:04:37;;;;;;;13.38;8.40;;;691.90;665.60;;;;;;5013076;28;20049;-86
2022/03/24 11:07:04;;;;;;;12.25;8.98;;;691.70;665.60;;;;;;5012056;28;20026;-86
2022/03/24 11:09:31;;;;;;;13.68;9.75;;;691.80;665.60;;;;;;5011652;28;20030;-85
2022/03/24 11:12:26;;;;;;;13.82;8.98;;;717.00;691.20;;;;;;5011711;28;20494;-87
2022/03/24 11:14:55;;;;;;;18.60;9.18;;;717.40;691.20;;;;;;5011335;28;20514;-87
2022/03/24 11:17:26;;;;;;;13.93;9.05;;;717.60;691.20;;;;;;4995380;28;20080;-86
2022/03/24 11:20:02;;;;;;;16.95;9.43;;;742.40;691.20;;;;;;4989127;28;20026;-86
2022/03/24 11:22:35;;;;;;;;;;;742.70;691.20;;;;;;4995931;28;20025;-86
2022/03/24 11:25:03;;;;;;;13.30;8.05;;;742.80;691.20;;;;;;5011960;28;20439;-84
2022/03/24 11:27:30;;;;;;;16.05;9.27;;;742.50;691.20;;;;;;5011192;28;20487;-83
2022/03/24 11:29:56;;;;;;;15.32;9.63;;;742.70;691.20;;;;;;4995069;28;20129;-86
2022/03/24 11:32:23;;;;;;;11.35;8.23;;;743.00;665.60;;;;;;5011943;28;20037;-85
2022/03/24 11:34:51;;;;;;;17.23;10.45;;;717.60;665.60;;;;;;5011550;28;20053;-87
2022/03/24 11:37:17;;;;;;;14.77;8.82;;;743.00;691.20;;;;;;5008044;28;20033;-85
2022/03/24 11:40:08;;;;;;;14.65;8.55;;;742.40;691.20;;;;;;5008073;28;20030;-86
2022/03/24 11:42:48;;;;;;;14.98;10.20;;;717.50;665.60;;;;;;4993086;28;20022;-84
2022/03/24 11:45:27;;;;;;;12.75;9.07;;;717.50;691.20;;;;;;5008960;28;20040;-83
2022/03/24 11:48:00;;;;;;;17.20;9.45;;;742.40;691.20;;;;;;5010262;28;20045;-84
2022/03/24 11:50:47;;;;;;;12.85;8.70;;;717.60;665.60;;;;;;5012230;28;20030;-84
2022/03/24 11:53:16;;;;;;;15.93;11.80;;;742.90;691.20;;;;;;5014688;28;20049;-84
2022/03/24 11:56:03;;;;;;;11.98;8.93;;;743.00;691.20;;;;;;5014694;28;20379;-86
2022/03/24 11:58:52;;;;;;;15.23;10.25;;;742.80;691.20;;;;;;5010947;28;20059;-84
2022/03/24 12:01:18;;;;;;;12.90;9.00;;;768.00;665.60;;;;;;4997906;28;20517;-82
2022/03/24 12:03:59;;;;;;;15.23;9.63;;;768.10;665.60;;;;;;5004918;28;20113;-82
2022/03/24 12:06:48;;;;;;;13.52;9.30;;;743.00;665.60;;;;;;5009987;28;20018;-84
2022/03/24 12:09:25;;;;;;;12.40;8.70;;;743.00;665.60;;;;;;5011172;28;20049;-83
2022/03/24 12:12:06;;;;;;;16.27;9.32;;;743.20;665.60;;;;;;4983382;28;20077;-83
2022/03/24 12:14:32;;;;;;;16.08;9.98;;;742.80;665.60;;;;;;4976900;28;20022;-84
2022/03/24 12:17:03;;;;;;;11.38;9.18;;;743.10;665.60;;;;;;4973027;28;20436;-78
2022/03/24 12:19:52;;;;;;;20.55;9.85;;;768.10;665.60;;;;;;4986463;28;20077;-82
2022/03/24 12:22:28;;;;;;;21.23;9.68;;;743.00;665.60;;;;;;4977339;28;20046;-81
2022/03/24 12:25:00;;;;;;;13.05;9.00;;;743.30;665.60;;;;;;4978949;28;20054;-84
2022/03/24 12:27:53;;;;;;;12.38;8.68;;;742.70;665.60;;;;;;4973563;28;20085;-82
2022/03/24 12:30:20;;;;;;;14.70;8.68;;;743.10;665.60;;;;;;4992215;28;20034;-80
2022/03/24 12:33:05;;;;;;;11.18;8.30;;;768.30;640.00;;;;;;4974656;28;20027;-82
2022/03/24 12:35:43;;;;;;;11.30;8.18;;;768.10;640.00;;;;;;4973468;28;20077;-81
2022/03/24 12:38:34;;;;;;;14.00;8.73;;;743.10;640.00;;;;;;4970712;28;20038;-81
2022/03/24 12:41:03;;;;;;;13.85;7.97;;;743.10;665.60;;;;;;4986441;28;20022;-82
2022/03/24 12:43:30;;;;;;;12.75;8.45;;;743.00;665.60;;;;;;4973871;28;20026;-79
2022/03/24 12:46:20;;;;;;;10.18;7.75;;;743.20;665.60;;;;;;4985697;28;20023;-81
2022/03/24 12:48:46;;;;;;;13.55;8.77;;;768.20;640.00;;;;;;4981765;28;20102;-78
2022/03/24 12:51:21;;;;;;;9.98;8.18;;;742.60;665.60;;;;;;4972477;28;20122;-81
2022/03/24 12:53:59;;;;;;;13.95;9.25;;;743.10;665.60;;;;;;4984297;28;20721;-81
2022/03/24 12:56:27;;;;;;;8.65;7.55;;;768.10;640.00;;;;;;4985578;28;20376;-82
2022/03/24 12:58:56;;;;;;;23.38;9.80;;;768.50;640.00;;;;;;4989349;28;20018;-82
2022/03/24 13:01:22;;;;;;;16.38;10.32;;;743.00;665.60;;;;;;4976676;28;20045;-82
2022/03/24 13:04:03;;;;;;;9.75;7.93;;;743.20;640.00;;;;;;4977709;28;20035;-80
2022/03/24 13:06:29;;;;;;;12.77;7.85;;;743.20;640.00;;;;;;4983597;28;20058;-81
2022/03/24 13:09:20;;;;;;;14.32;8.13;;;768.00;640.00;;;;;;4968887;28;20113;-81
2022/03/24 13:12:05;;;;;;;8.68;7.25;;;768.10;640.00;;;;;;4997975;28;20049;-81
2022/03/24 13:14:32;;;;;;;18.35;8.00;;;768.10;640.00;;;;;;5007903;28;20036;-81
2022/03/24 13:17:06;;;;;;;13.13;7.25;;;768.00;640.00;;;;;;5008153;28;20080;-81
2022/03/24 13:19:32;;;;;;;12.65;8.40;;;743.20;640.00;;;;;;5007755;28;20025;-80
2022/03/24 13:22:10;;;;;;;13.93;8.13;;;742.70;665.60;;;;;;4984765;28;20122;-80
2022/03/24 13:24:37;;;;;;;9.20;7.43;;;742.90;665.60;;;;;;5009581;28;20053;-80
2022/03/24 13:27:03;;;;;;;10.68;7.53;;;742.80;665.60;;;;;;5002297;28;20104;-80
2022/03/24 13:29:37;;;;;;;12.30;8.02;;;742.40;665.60;;;;;;5006100;28;20041;-80
2022/03/24 13:32:15;;;;;;;11.25;6.93;;;743.10;665.60;;;;;;4992121;28;20040;-79
2022/03/24 13:35:02;;;;;;;12.77;7.72;;;742.70;665.60;;;;;;4990142;28;20041;-81
2022/03/24 13:37:36;;;;;;;11.50;7.50;;;742.40;665.60;;;;;;5005217;28;20029;-81
2022/03/24 13:40:05;;;;;;;17.95;8.60;;;717.70;640.00;;;;;;4999352;28;20041;-79
2022/03/24 13:42:31;;;;;;;11.77;7.93;;;742.40;665.60;;;;;;5009562;28;20026;-80
2022/03/24 13:44:57;;;;;;;13.15;7.60;;;742.90;665.60;;;;;;4991514;28;20034;-79
2022/03/24 13:47:25;;;;;;;12.15;7.78;;;742.50;665.60;;;;;;5004289;28;20088;-83
2022/03/24 13:50:02;;;;;;;13.57;7.40;;;742.70;665.60;;;;;;5005145;28;20022;-82
2022/03/24 13:52:39;;;;;;;10.82;7.72;;;742.80;665.60;;;;;;4999849;28;20041;-81
2022/03/24 13:55:26;;;;;;;11.68;7.05;;;742.60;665.60;;;;;;4999433;28;20026;-82
2022/03/24 13:58:03;;;;;;;10.05;6.97;;;742.70;665.60;;;;;;4993211;28;20033;-83
2022/03/24 14:00:45;;;;;;;13.80;8.90;;;742.50;665.60;;;;;;5003637;28;20026;-83
2022/03/24 14:03:15;;;;;;;11.07;7.75;;;742.70;665.60;;;;;;4991875;28;20034;-84
2022/03/24 14:06:03;;;;;;;12.63;7.20;;;742.70;665.60;;;;;;5009322;28;20029;-84
2022/03/24 14:08:57;;;;;;;11.85;7.13;;;717.40;640.00;;;;;;4983831;28;20100;-83
2022/03/24 14:11:25;;;;;;;11.80;8.25;;;717.30;640.00;;;;;;5005018;28;20411;-82
2022/03/24 14:13:52;;;;;;;12.20;7.28;;;717.30;640.00;;;;;;4991542;28;20084;-83
2022/03/24 14:16:30;;;;;;;31.05;11.10;;;716.80;665.60;;;;;;5008198;28;20037;-83
2022/03/24 14:19:15;;;;;;;14.32;8.48;;;717.10;665.60;;;;;;4992861;28;20049;-83
2022/03/24 14:21:47;;;;;;;11.43;8.02;;;717.40;665.60;;;;;;5000718;28;20022;-83
2022/03/24 14:24:45;;;;;;;10.63;6.88;;;717.00;665.60;;;;;;5002513;28;20061;-84
2022/03/24 14:27:24;;;;;;;13.27;7.82;;;716.90;665.60;;;;;;4988063;28;20033;-83
2022/03/24 14:30:11;;;;;;;11.45;8.18;;;691.90;640.00;;;;;;5005697;28;20105;-83
2022/03/24 14:32:42;;;;;;;11.43;7.32;;;691.50;665.60;;;;;;4990279;28;20171;-82
2022/03/24 14:35:19;;;;;;;10.00;7.18;;;666.50;665.60;;;;;;4997822;28;20525;-82
2022/03/24 14:37:49;;;;;;;11.68;7.28;;;666.40;665.60;;;;;;4997701;28;20126;-82
2022/03/24 14:40:29;;;;;;;17.55;6.75;;;691.20;665.60;;;;;;5005836;28;20153;-83
2022/03/24 14:43:06;;;;;;;16.75;8.73;;;691.20;665.60;;;;;;4992838;28;20037;-82
2022/03/24 14:45:33;;;;;;;14.00;7.88;;;666.50;665.60;;;;;;4994716;28;20475;-83
2022/03/24 14:48:00;;;;;;;10.10;6.43;;;691.40;640.00;;;;;;5003405;28;20495;-82
2022/03/24 14:50:26;;;;;;;8.80;6.45;;;666.30;665.60;;;;;;5000740;28;20033;-82
2022/03/24 14:52:52;;;;;;;12.68;7.65;;;666.10;665.60;;;;;;4996189;28;20030;-82
2022/03/24 14:55:18;;;;;;;10.00;6.40;;;666.10;665.60;;;;;;4982988;28;20049;-82
2022/03/24 14:57:46;;;;;;;9.88;6.88;;;666.20;691.20;;;;;;5008574;28;20112;-83
2022/03/24 15:00:15;;;;;;;14.70;6.53;;;665.80;665.60;;;;;;4985169;28;20038;-82
2022/03/24 15:02:41;;;;;;;11.52;8.63;;;665.80;691.20;;;;;;5005467;28;20033;-83
2022/03/24 15:05:08;;;;;;;9.85;6.72;;;666.10;691.20;;;;;;5003183;28;20033;-82
2022/03/24 15:07:34;;;;;;;9.60;6.45;;;666.00;665.60;;;;;;4999243;28;20023;-83
2022/03/24 15:10:01;;;;;;;18.65;8.98;;;665.80;691.20;;;;;;5001363;28;20038;-83
2022/03/24 15:12:27;;;;;;;11.63;8.27;;;665.90;691.20;;;;;;4985397;28;20716;-82